sensor_id;sensor_type;location;lat;lon;timestamp;pressure;altitude;pressure_sealevel;temperature;humidity
3812;BME280;1921;49.368;11.068;2023-04-02T00:03:06;96803.72;;;9.86;90.54
3812;BME280;1921;49.368;11.068;2023-04-02T00:05:44;96755.50;;;9.62;90.65
3812;BME280;1921;49.368;11.068;2023-04-02T00:08:35;96798.28;;;9.87;90.70
3812;BME280;1921;49.368;11.068;2023-04-02T00:11:07;96757.75;;;9.65;90.97
3812;BME280;1921;49.368;11.068;2023-04-02T00:13:43;96752.31;;;9.60;91.01
3812;BME280;1921;49.368;11.068;2023-04-02T00:16:22;96782.25;;;9.77;90.63
3812;BME280;1921;49.368;11.068;2023-04-02T00:18:53;96800.31;;;9.85;90.85
3812;BME280;1921;49.368;11.068;2023-04-02T00:21:27;96806.75;;;9.89;91.28
3812;BME280;1921;49.368;11.068;2023-04-02T00:23:55;96790.41;;;9.74;91.23
3812;BME280;1921;49.368;11.068;2023-04-02T00:26:38;96784.00;;;9.70;91.17
3812;BME280;1921;49.368;11.068;2023-04-02T00:29:09;96773.13;;;9.60;91.09
3812;BME280;1921;49.368;11.068;2023-04-02T00:31:41;96831.44;;;10.00;91.42
3812;BME280;1921;49.368;11.068;2023-04-02T00:34:17;96834.25;;;10.05;91.15
3812;BME280;1921;49.368;11.068;2023-04-02T00:36:46;96792.50;;;9.85;90.74
3812;BME280;1921;49.368;11.068;2023-04-02T00:39:24;96771.59;;;9.72;91.13
3812;BME280;1921;49.368;11.068;2023-04-02T00:41:54;96818.00;;;9.96;90.96
3812;BME280;1921;49.368;11.068;2023-04-02T00:44:37;96765.72;;;9.57;90.23
3812;BME280;1921;49.368;11.068;2023-04-02T00:47:19;96801.28;;;9.78;90.64
3812;BME280;1921;49.368;11.068;2023-04-02T00:49:46;96809.44;;;9.75;91.74
3812;BME280;1921;49.368;11.068;2023-04-02T00:52:17;96821.13;;;9.85;91.55
3812;BME280;1921;49.368;11.068;2023-04-02T00:54:59;96837.19;;;9.89;92.33
3812;BME280;1921;49.368;11.068;2023-04-02T00:57:27;96841.59;;;9.88;92.27
3812;BME280;1921;49.368;11.068;2023-04-02T01:02:37;96806.13;;;9.53;92.58
3812;BME280;1921;49.368;11.068;2023-04-02T01:13:41;96832.44;;;9.64;92.90
3812;BME280;1921;49.368;11.068;2023-04-02T01:16:33;96853.56;;;9.83;92.14
3812;BME280;1921;49.368;11.068;2023-04-02T01:22:06;96855.06;;;9.98;91.25
3812;BME280;1921;49.368;11.068;2023-04-02T01:24:34;96822.66;;;9.73;91.07
3812;BME280;1921;49.368;11.068;2023-04-02T01:27:07;96784.25;;;9.47;90.89
3812;BME280;1921;49.368;11.068;2023-04-02T01:29:47;96823.50;;;9.80;90.61
3812;BME280;1921;49.368;11.068;2023-04-02T01:32:18;96862.53;;;10.08;89.87
3812;BME280;1921;49.368;11.068;2023-04-02T01:34:49;96788.75;;;9.60;89.37
3812;BME280;1921;49.368;11.068;2023-04-02T01:37:45;96869.16;;;10.11;89.89
3812;BME280;1921;49.368;11.068;2023-04-02T01:40:46;96814.84;;;9.73;89.97
3812;BME280;1921;49.368;11.068;2023-04-02T01:45:57;96832.22;;;9.94;89.37
3812;BME280;1921;49.368;11.068;2023-04-02T01:48:27;96866.50;;;10.04;89.50
3812;BME280;1921;49.368;11.068;2023-04-02T01:50:56;96820.81;;;9.67;89.54
3812;BME280;1921;49.368;11.068;2023-04-02T01:53:26;96823.88;;;9.70;89.59
3812;BME280;1921;49.368;11.068;2023-04-02T01:55:56;96813.09;;;9.46;90.49
3812;BME280;1921;49.368;11.068;2023-04-02T01:58:29;96829.16;;;9.56;91.18
3812;BME280;1921;49.368;11.068;2023-04-02T02:03:27;96826.28;;;9.44;91.94
3812;BME280;1921;49.368;11.068;2023-04-02T02:05:54;96839.97;;;9.53;93.16
3812;BME280;1921;49.368;11.068;2023-04-02T02:08:38;96875.69;;;9.65;93.35
3812;BME280;1921;49.368;11.068;2023-04-02T02:11:14;96880.09;;;9.43;95.60
3812;BME280;1921;49.368;11.068;2023-04-02T02:13:56;96894.84;;;9.58;95.23
3812;BME280;1921;49.368;11.068;2023-04-02T02:16:23;96884.44;;;9.58;95.04
3812;BME280;1921;49.368;11.068;2023-04-02T02:18:55;96861.78;;;9.52;94.24
3812;BME280;1921;49.368;11.068;2023-04-02T02:21:42;96890.34;;;9.73;93.84
3812;BME280;1921;49.368;11.068;2023-04-02T02:24:26;96877.50;;;9.65;94.12
3812;BME280;1921;49.368;11.068;2023-04-02T02:29:54;96915.88;;;9.84;94.36
3812;BME280;1921;49.368;11.068;2023-04-02T02:32:26;96928.38;;;9.95;94.30
3812;BME280;1921;49.368;11.068;2023-04-02T02:35:21;96924.88;;;9.82;94.55
3812;BME280;1921;49.368;11.068;2023-04-02T02:38:03;96914.44;;;9.75;95.09
3812;BME280;1921;49.368;11.068;2023-04-02T02:40:42;96873.34;;;9.49;95.66
3812;BME280;1921;49.368;11.068;2023-04-02T02:43:12;96909.28;;;9.60;96.34
3812;BME280;1921;49.368;11.068;2023-04-02T02:45:40;96885.94;;;9.46;95.89
3812;BME280;1921;49.368;11.068;2023-04-02T02:48:12;96877.50;;;9.43;96.01
3812;BME280;1921;49.368;11.068;2023-04-02T02:50:41;96868.25;;;9.34;96.24
3812;BME280;1921;49.368;11.068;2023-04-02T02:53:20;96861.94;;;9.22;96.53
3812;BME280;1921;49.368;11.068;2023-04-02T02:55:50;96907.13;;;9.42;97.19
3812;BME280;1921;49.368;11.068;2023-04-02T02:58:29;96940.63;;;9.74;96.80
3812;BME280;1921;49.368;11.068;2023-04-02T03:00:57;96895.72;;;9.43;96.67
3812;BME280;1921;49.368;11.068;2023-04-02T03:03:27;96924.09;;;9.60;97.08
3812;BME280;1921;49.368;11.068;2023-04-02T03:05:59;96910.53;;;9.43;97.61
3812;BME280;1921;49.368;11.068;2023-04-02T03:08:39;96899.00;;;9.31;98.08
3812;BME280;1921;49.368;11.068;2023-04-02T03:13:44;96935.66;;;9.51;97.76
3812;BME280;1921;49.368;11.068;2023-04-02T03:16:25;96898.22;;;9.30;98.80
3812;BME280;1921;49.368;11.068;2023-04-02T03:21:51;96964.50;;;9.56;99.65
3812;BME280;1921;49.368;11.068;2023-04-02T03:27:29;96977.91;;;9.53;100.00
3812;BME280;1921;49.368;11.068;2023-04-02T03:30:28;96976.34;;;9.37;100.00
3812;BME280;1921;49.368;11.068;2023-04-02T03:33:24;96969.97;;;9.39;100.00
3812;BME280;1921;49.368;11.068;2023-04-02T03:36:02;96964.50;;;9.34;100.00
3812;BME280;1921;49.368;11.068;2023-04-02T03:38:34;96944.63;;;9.27;100.00
3812;BME280;1921;49.368;11.068;2023-04-02T03:41:20;96966.38;;;9.40;100.00
3812;BME280;1921;49.368;11.068;2023-04-02T03:43:54;96971.94;;;9.37;100.00
3812;BME280;1921;49.368;11.068;2023-04-02T03:46:33;96994.00;;;9.41;100.00
3812;BME280;1921;49.368;11.068;2023-04-02T03:49:10;97009.06;;;9.46;100.00
3812;BME280;1921;49.368;11.068;2023-04-02T03:51:58;96991.84;;;9.45;100.00
3812;BME280;1921;49.368;11.068;2023-04-02T03:54:27;96957.66;;;9.12;100.00
3812;BME280;1921;49.368;11.068;2023-04-02T03:56:53;96963.13;;;9.17;100.00
3812;BME280;1921;49.368;11.068;2023-04-02T03:59:41;96988.28;;;9.31;100.00
3812;BME280;1921;49.368;11.068;2023-04-02T04:04:52;96980.25;;;9.26;100.00
3812;BME280;1921;49.368;11.068;2023-04-02T04:07:37;97004.22;;;9.43;100.00
3812;BME280;1921;49.368;11.068;2023-04-02T04:10:06;97002.53;;;9.35;100.00
3812;BME280;1921;49.368;11.068;2023-04-02T04:12:42;97021.34;;;9.52;100.00
3812;BME280;1921;49.368;11.068;2023-04-02T04:16:21;96946.06;;;8.93;100.00
3812;BME280;1921;49.368;11.068;2023-04-02T04:18:46;96980.28;;;9.11;100.00
3812;BME280;1921;49.368;11.068;2023-04-02T04:21:24;96998.19;;;9.21;100.00
3812;BME280;1921;49.368;11.068;2023-04-02T04:24:16;97025.63;;;9.24;100.00
3812;BME280;1921;49.368;11.068;2023-04-02T04:32:57;97047.50;;;9.29;100.00
3812;BME280;1921;49.368;11.068;2023-04-02T04:35:36;97001.81;;;9.05;100.00
3812;BME280;1921;49.368;11.068;2023-04-02T04:38:09;97011.13;;;9.14;100.00
3812;BME280;1921;49.368;11.068;2023-04-02T04:40:46;97034.50;;;9.29;100.00
3812;BME280;1921;49.368;11.068;2023-04-02T04:43:36;97003.69;;;9.11;100.00
3812;BME280;1921;49.368;11.068;2023-04-02T04:46:09;97020.34;;;9.17;100.00
3812;BME280;1921;49.368;11.068;2023-04-02T04:49:01;97045.38;;;9.33;100.00
3812;BME280;1921;49.368;11.068;2023-04-02T04:51:45;97053.16;;;9.33;100.00
3812;BME280;1921;49.368;11.068;2023-04-02T04:54:13;97041.25;;;9.24;100.00
3812;BME280;1921;49.368;11.068;2023-04-02T04:56:49;97010.19;;;9.01;100.00
3812;BME280;1921;49.368;11.068;2023-04-02T05:04:43;97031.13;;;9.14;100.00
3812;BME280;1921;49.368;11.068;2023-04-02T05:07:16;97086.53;;;9.44;100.00
3812;BME280;1921;49.368;11.068;2023-04-02T05:10:06;97031.69;;;9.09;100.00
3812;BME280;1921;49.368;11.068;2023-04-02T05:13:02;97050.56;;;9.18;100.00
3812;BME280;1921;49.368;11.068;2023-04-02T05:18:48;97082.88;;;9.38;100.00
3812;BME280;1921;49.368;11.068;2023-04-02T05:26:51;97042.53;;;8.98;100.00
3812;BME280;1921;49.368;11.068;2023-04-02T05:29:27;97101.97;;;9.31;100.00
3812;BME280;1921;49.368;11.068;2023-04-02T05:32:21;97098.41;;;9.32;100.00
3812;BME280;1921;49.368;11.068;2023-04-02T05:34:53;97100.88;;;9.40;100.00
3812;BME280;1921;49.368;11.068;2023-04-02T05:37:28;97081.25;;;9.23;100.00
3812;BME280;1921;49.368;11.068;2023-04-02T05:39:58;97049.00;;;9.02;100.00
3812;BME280;1921;49.368;11.068;2023-04-02T05:42:33;97102.16;;;9.29;100.00
3812;BME280;1921;49.368;11.068;2023-04-02T05:45:22;97071.16;;;8.98;100.00
3812;BME280;1921;49.368;11.068;2023-04-02T05:47:52;97136.94;;;9.43;100.00
3812;BME280;1921;49.368;11.068;2023-04-02T05:50:29;97097.06;;;9.21;100.00
3812;BME280;1921;49.368;11.068;2023-04-02T05:53:05;97134.41;;;9.50;100.00
3812;BME280;1921;49.368;11.068;2023-04-02T05:55:48;97084.16;;;9.13;100.00
3812;BME280;1921;49.368;11.068;2023-04-02T05:58:33;97143.16;;;9.57;100.00
3812;BME280;1921;49.368;11.068;2023-04-02T06:01:14;97152.38;;;9.59;100.00
3812;BME280;1921;49.368;11.068;2023-04-02T06:06:55;97119.19;;;9.47;100.00
3812;BME280;1921;49.368;11.068;2023-04-02T06:09:52;97161.78;;;9.75;100.00
3812;BME280;1921;49.368;11.068;2023-04-02T06:12:48;97126.00;;;9.48;100.00
3812;BME280;1921;49.368;11.068;2023-04-02T06:15:22;97129.47;;;9.55;100.00
3812;BME280;1921;49.368;11.068;2023-04-02T06:17:57;97172.44;;;9.80;100.00
3812;BME280;1921;49.368;11.068;2023-04-02T06:20:24;97146.78;;;9.62;100.00
3812;BME280;1921;49.368;11.068;2023-04-02T06:23:06;97063.16;;;9.00;100.00
3812;BME280;1921;49.368;11.068;2023-04-02T06:25:47;97130.94;;;9.42;100.00
3812;BME280;1921;49.368;11.068;2023-04-02T06:28:40;97185.84;;;9.77;100.00
3812;BME280;1921;49.368;11.068;2023-04-02T06:33:52;97094.47;;;9.21;100.00
3812;BME280;1921;49.368;11.068;2023-04-02T06:36:23;97173.72;;;9.69;100.00
3812;BME280;1921;49.368;11.068;2023-04-02T06:38:57;97122.34;;;9.27;100.00
3812;BME280;1921;49.368;11.068;2023-04-02T06:41:27;97182.78;;;9.74;100.00
3812;BME280;1921;49.368;11.068;2023-04-02T06:44:05;97188.72;;;9.82;100.00
3812;BME280;1921;49.368;11.068;2023-04-02T06:46:50;97176.16;;;9.71;100.00
3812;BME280;1921;49.368;11.068;2023-04-02T06:49:31;97196.59;;;9.89;100.00
3812;BME280;1921;49.368;11.068;2023-04-02T06:52:01;97207.16;;;10.02;100.00
3812;BME280;1921;49.368;11.068;2023-04-02T06:54:29;97117.75;;;9.44;100.00
3812;BME280;1921;49.368;11.068;2023-04-02T06:56:55;97193.88;;;9.97;100.00
3812;BME280;1921;49.368;11.068;2023-04-02T06:59:21;97198.19;;;9.90;100.00
3812;BME280;1921;49.368;11.068;2023-04-02T07:02:04;97211.03;;;9.91;100.00
3812;BME280;1921;49.368;11.068;2023-04-02T07:04:31;97189.31;;;9.84;100.00
3812;BME280;1921;49.368;11.068;2023-04-02T07:06:57;97203.75;;;10.02;100.00
3812;BME280;1921;49.368;11.068;2023-04-02T07:09:23;97209.84;;;10.09;100.00
3812;BME280;1921;49.368;11.068;2023-04-02T07:11:50;97206.50;;;10.15;100.00
3812;BME280;1921;49.368;11.068;2023-04-02T07:14:16;97203.88;;;10.15;100.00
3812;BME280;1921;49.368;11.068;2023-04-02T07:16:42;97181.31;;;10.01;100.00
3812;BME280;1921;49.368;11.068;2023-04-02T07:19:19;97212.06;;;10.27;100.00
3812;BME280;1921;49.368;11.068;2023-04-02T07:21:46;97222.28;;;10.28;100.00
3812;BME280;1921;49.368;11.068;2023-04-02T07:24:13;97231.84;;;10.42;100.00
3812;BME280;1921;49.368;11.068;2023-04-02T07:26:38;97217.75;;;10.37;100.00
3812;BME280;1921;49.368;11.068;2023-04-02T07:29:08;97197.31;;;10.19;100.00
3812;BME280;1921;49.368;11.068;2023-04-02T07:31:34;97260.84;;;10.54;100.00
3812;BME280;1921;49.368;11.068;2023-04-02T07:34:00;97214.13;;;10.31;100.00
3812;BME280;1921;49.368;11.068;2023-04-02T07:36:28;97214.88;;;10.25;100.00
3812;BME280;1921;49.368;11.068;2023-04-02T07:38:55;97226.97;;;10.33;100.00
3812;BME280;1921;49.368;11.068;2023-04-02T07:41:20;97248.22;;;10.36;100.00
3812;BME280;1921;49.368;11.068;2023-04-02T07:43:47;97235.38;;;10.35;100.00
3812;BME280;1921;49.368;11.068;2023-04-02T07:46:14;97235.84;;;10.38;100.00
3812;BME280;1921;49.368;11.068;2023-04-02T07:48:42;97240.66;;;10.41;100.00
3812;BME280;1921;49.368;11.068;2023-04-02T07:51:34;97280.63;;;10.63;100.00
3812;BME280;1921;49.368;11.068;2023-04-02T07:54:00;97258.44;;;10.52;100.00
3812;BME280;1921;49.368;11.068;2023-04-02T07:56:26;97266.63;;;10.49;100.00
3812;BME280;1921;49.368;11.068;2023-04-02T07:58:53;97246.28;;;10.38;100.00
3812;BME280;1921;49.368;11.068;2023-04-02T08:01:23;97303.03;;;10.79;100.00
3812;BME280;1921;49.368;11.068;2023-04-02T08:03:51;97240.19;;;10.52;99.70
3812;BME280;1921;49.368;11.068;2023-04-02T08:06:17;97286.81;;;10.84;100.00
3812;BME280;1921;49.368;11.068;2023-04-02T08:08:43;97309.44;;;10.76;100.00
3812;BME280;1921;49.368;11.068;2023-04-02T08:11:09;97302.69;;;10.67;100.00
3812;BME280;1921;49.368;11.068;2023-04-02T08:13:35;97233.53;;;10.29;100.00
3812;BME280;1921;49.368;11.068;2023-04-02T08:16:02;97267.53;;;10.42;100.00
3812;BME280;1921;49.368;11.068;2023-04-02T08:18:29;97280.03;;;10.46;100.00
3812;BME280;1921;49.368;11.068;2023-04-02T08:20:56;97278.97;;;10.41;100.00
3812;BME280;1921;49.368;11.068;2023-04-02T08:23:22;97273.44;;;10.14;100.00
3812;BME280;1921;49.368;11.068;2023-04-02T08:25:49;97302.97;;;10.36;100.00
3812;BME280;1921;49.368;11.068;2023-04-02T08:28:15;97307.66;;;10.41;100.00
3812;BME280;1921;49.368;11.068;2023-04-02T08:30:41;97295.97;;;10.22;100.00
3812;BME280;1921;49.368;11.068;2023-04-02T08:33:07;97291.41;;;10.24;100.00
3812;BME280;1921;49.368;11.068;2023-04-02T08:35:33;97353.56;;;10.57;100.00
3812;BME280;1921;49.368;11.068;2023-04-02T08:37:59;97307.84;;;10.39;100.00
3812;BME280;1921;49.368;11.068;2023-04-02T08:40:35;97338.53;;;10.59;100.00
3812;BME280;1921;49.368;11.068;2023-04-02T08:49:12;97310.75;;;10.00;100.00
3812;BME280;1921;49.368;11.068;2023-04-02T08:51:38;97333.09;;;9.27;100.00
3812;BME280;1921;49.368;11.068;2023-04-02T08:54:14;97386.69;;;8.12;100.00
3812;BME280;1921;49.368;11.068;2023-04-02T08:59:37;97379.00;;;7.71;100.00
3812;BME280;1921;49.368;11.068;2023-04-02T09:02:38;97364.88;;;7.74;100.00
3812;BME280;1921;49.368;11.068;2023-04-02T09:05:08;97380.78;;;7.71;100.00
3812;BME280;1921;49.368;11.068;2023-04-02T09:07:40;97395.53;;;7.78;100.00
3812;BME280;1921;49.368;11.068;2023-04-02T09:10:17;97383.88;;;7.58;100.00
3812;BME280;1921;49.368;11.068;2023-04-02T09:12:49;97367.19;;;7.20;100.00
3812;BME280;1921;49.368;11.068;2023-04-02T09:15:34;97435.75;;;7.50;100.00
3812;BME280;1921;49.368;11.068;2023-04-02T09:18:14;97359.22;;;6.81;100.00
3812;BME280;1921;49.368;11.068;2023-04-02T09:20:41;97387.72;;;6.89;100.00
3812;BME280;1921;49.368;11.068;2023-04-02T09:23:21;97403.13;;;6.90;100.00
3812;BME280;1921;49.368;11.068;2023-04-02T09:25:51;97376.25;;;6.91;100.00
3812;BME280;1921;49.368;11.068;2023-04-02T09:28:20;97408.03;;;7.26;100.00
3812;BME280;1921;49.368;11.068;2023-04-02T09:31:18;97454.09;;;7.48;100.00
3812;BME280;1921;49.368;11.068;2023-04-02T09:33:49;97442.38;;;7.12;100.00
3812;BME280;1921;49.368;11.068;2023-04-02T09:36:24;97464.31;;;7.50;100.00
3812;BME280;1921;49.368;11.068;2023-04-02T09:39:04;97483.47;;;7.73;100.00
3812;BME280;1921;49.368;11.068;2023-04-02T09:41:34;97436.28;;;7.45;100.00
3812;BME280;1921;49.368;11.068;2023-04-02T09:44:26;97326.50;;;6.80;100.00
3812;BME280;1921;49.368;11.068;2023-04-02T09:49:36;97468.38;;;7.61;100.00
3812;BME280;1921;49.368;11.068;2023-04-02T09:52:19;97501.81;;;7.96;100.00
3812;BME280;1921;49.368;11.068;2023-04-02T09:55:17;97448.75;;;7.50;100.00
3812;BME280;1921;49.368;11.068;2023-04-02T09:57:46;97437.38;;;7.26;100.00
3812;BME280;1921;49.368;11.068;2023-04-02T10:00:24;97463.66;;;7.40;100.00
3812;BME280;1921;49.368;11.068;2023-04-02T10:03:27;97507.91;;;7.38;100.00
3812;BME280;1921;49.368;11.068;2023-04-02T10:06:10;97457.75;;;6.97;100.00
3812;BME280;1921;49.368;11.068;2023-04-02T10:08:40;97422.75;;;7.01;100.00
3812;BME280;1921;49.368;11.068;2023-04-02T10:11:18;97529.34;;;7.56;100.00
3812;BME280;1921;49.368;11.068;2023-04-02T10:14:00;97535.25;;;7.16;100.00
3812;BME280;1921;49.368;11.068;2023-04-02T10:16:42;97458.94;;;6.68;100.00
3812;BME280;1921;49.368;11.068;2023-04-02T10:21:49;97486.41;;;6.53;100.00
3812;BME280;1921;49.368;11.068;2023-04-02T10:24:17;97479.63;;;6.26;100.00
3812;BME280;1921;49.368;11.068;2023-04-02T10:27:24;97489.78;;;6.19;100.00
3812;BME280;1921;49.368;11.068;2023-04-02T10:32:54;97566.06;;;6.77;100.00
3812;BME280;1921;49.368;11.068;2023-04-02T10:38:09;97536.38;;;6.71;100.00
3812;BME280;1921;49.368;11.068;2023-04-02T10:40:58;97532.25;;;6.95;100.00
3812;BME280;1921;49.368;11.068;2023-04-02T10:43:38;97572.84;;;7.12;100.00
3812;BME280;1921;49.368;11.068;2023-04-02T10:53:18;97587.91;;;6.48;100.00
3812;BME280;1921;49.368;11.068;2023-04-02T10:55:53;97497.28;;;6.05;100.00
3812;BME280;1921;49.368;11.068;2023-04-02T10:58:27;97603.28;;;7.02;100.00
3812;BME280;1921;49.368;11.068;2023-04-02T11:01:00;97584.56;;;7.33;100.00
3812;BME280;1921;49.368;11.068;2023-04-02T11:03:40;97582.38;;;7.54;100.00
3812;BME280;1921;49.368;11.068;2023-04-02T11:06:36;97574.31;;;7.73;100.00
3812;BME280;1921;49.368;11.068;2023-04-02T11:09:05;97581.97;;;7.91;100.00
3812;BME280;1921;49.368;11.068;2023-04-02T11:11:40;97592.50;;;7.90;100.00
3812;BME280;1921;49.368;11.068;2023-04-02T11:14:19;97564.94;;;7.22;100.00
3812;BME280;1921;49.368;11.068;2023-04-02T11:16:51;97570.94;;;6.88;100.00
3812;BME280;1921;49.368;11.068;2023-04-02T11:21:45;97629.91;;;7.20;100.00
3812;BME280;1921;49.368;11.068;2023-04-02T11:24:44;97586.56;;;6.70;100.00
3812;BME280;1921;49.368;11.068;2023-04-02T11:30:11;97646.00;;;6.90;100.00
3812;BME280;1921;49.368;11.068;2023-04-02T11:32:48;97568.91;;;6.40;100.00
3812;BME280;1921;49.368;11.068;2023-04-02T11:37:50;97607.16;;;6.46;100.00
3812;BME280;1921;49.368;11.068;2023-04-02T11:43:47;97458.34;;;5.71;100.00
3812;BME280;1921;49.368;11.068;2023-04-02T11:54:22;97669.03;;;6.75;100.00
3812;BME280;1921;49.368;11.068;2023-04-02T11:57:05;97683.16;;;6.81;100.00
3812;BME280;1921;49.368;11.068;2023-04-02T12:02:39;97661.94;;;7.03;100.00
3812;BME280;1921;49.368;11.068;2023-04-02T12:06:17;97626.34;;;6.35;100.00
3812;BME280;1921;49.368;11.068;2023-04-02T12:11:46;97646.66;;;6.48;100.00
3812;BME280;1921;49.368;11.068;2023-04-02T12:19:48;97655.25;;;6.31;100.00
3812;BME280;1921;49.368;11.068;2023-04-02T12:22:24;97660.16;;;6.34;100.00
3812;BME280;1921;49.368;11.068;2023-04-02T12:24:57;97667.44;;;6.56;100.00
3812;BME280;1921;49.368;11.068;2023-04-02T12:27:26;97721.53;;;7.21;100.00
3812;BME280;1921;49.368;11.068;2023-04-02T12:30:16;97687.06;;;6.59;100.00
3812;BME280;1921;49.368;11.068;2023-04-02T12:32:43;97720.44;;;6.62;100.00
3812;BME280;1921;49.368;11.068;2023-04-02T12:35:35;97717.88;;;6.88;100.00
3812;BME280;1921;49.368;11.068;2023-04-02T12:38:01;97581.69;;;5.98;100.00
3812;BME280;1921;49.368;11.068;2023-04-02T12:40:27;97660.28;;;6.14;100.00
3812;BME280;1921;49.368;11.068;2023-04-02T12:42:53;97636.69;;;6.00;100.00
3812;BME280;1921;49.368;11.068;2023-04-02T12:45:29;97683.59;;;6.50;100.00
3812;BME280;1921;49.368;11.068;2023-04-02T12:48:00;97709.81;;;6.91;100.00
3812;BME280;1921;49.368;11.068;2023-04-02T12:50:27;97736.44;;;6.57;100.00
3812;BME280;1921;49.368;11.068;2023-04-02T12:52:54;97714.97;;;6.11;100.00
3812;BME280;1921;49.368;11.068;2023-04-02T12:55:24;97697.03;;;6.00;100.00
3812;BME280;1921;49.368;11.068;2023-04-02T12:58:00;97606.97;;;5.40;100.00
3812;BME280;1921;49.368;11.068;2023-04-02T13:00:31;97706.50;;;5.91;100.00
3812;BME280;1921;49.368;11.068;2023-04-02T13:03:18;97725.81;;;5.97;100.00
3812;BME280;1921;49.368;11.068;2023-04-02T13:05:52;97729.66;;;5.93;100.00
3812;BME280;1921;49.368;11.068;2023-04-02T13:08:24;97763.75;;;6.34;100.00
3812;BME280;1921;49.368;11.068;2023-04-02T13:11:09;97738.13;;;6.31;100.00
3812;BME280;1921;49.368;11.068;2023-04-02T13:13:38;97726.31;;;6.46;100.00
3812;BME280;1921;49.368;11.068;2023-04-02T13:18:40;97682.41;;;6.27;100.00
3812;BME280;1921;49.368;11.068;2023-04-02T13:23:41;97772.09;;;6.99;100.00
3812;BME280;1921;49.368;11.068;2023-04-02T13:26:24;97736.41;;;6.75;100.00
3812;BME280;1921;49.368;11.068;2023-04-02T13:29:03;97790.38;;;7.15;100.00
3812;BME280;1921;49.368;11.068;2023-04-02T13:31:36;97750.78;;;6.69;99.41
3812;BME280;1921;49.368;11.068;2023-04-02T13:34:02;97768.09;;;6.33;100.00
3812;BME280;1921;49.368;11.068;2023-04-02T13:36:28;97797.50;;;6.42;100.00
3812;BME280;1921;49.368;11.068;2023-04-02T13:38:54;97741.97;;;6.27;100.00
3812;BME280;1921;49.368;11.068;2023-04-02T13:41:29;97780.41;;;6.49;100.00
3812;BME280;1921;49.368;11.068;2023-04-02T13:43:59;97630.88;;;5.15;100.00
3812;BME280;1921;49.368;11.068;2023-04-02T13:46:29;97726.94;;;5.57;100.00
3812;BME280;1921;49.368;11.068;2023-04-02T13:48:56;97758.81;;;5.85;100.00
3812;BME280;1921;49.368;11.068;2023-04-02T13:51:35;97804.50;;;6.32;100.00
3812;BME280;1921;49.368;11.068;2023-04-02T13:54:02;97653.31;;;5.24;100.00
3812;BME280;1921;49.368;11.068;2023-04-02T13:56:31;97756.63;;;5.90;100.00
3812;BME280;1921;49.368;11.068;2023-04-02T13:58:57;97776.88;;;6.05;100.00
3812;BME280;1921;49.368;11.068;2023-04-02T14:01:24;97770.41;;;5.91;100.00
3812;BME280;1921;49.368;11.068;2023-04-02T14:03:51;97805.38;;;6.23;100.00
3812;BME280;1921;49.368;11.068;2023-04-02T14:10:28;97786.66;;;6.11;100.00
3812;BME280;1921;49.368;11.068;2023-04-02T14:13:33;97857.19;;;6.23;100.00
3812;BME280;1921;49.368;11.068;2023-04-02T14:19:52;97858.47;;;6.36;98.20
3812;BME280;1921;49.368;11.068;2023-04-02T14:22:43;97830.34;;;5.77;99.03
3812;BME280;1921;49.368;11.068;2023-04-02T14:34:13;97878.16;;;5.73;100.00
3812;BME280;1921;49.368;11.068;2023-04-02T14:40:02;97855.09;;;5.42;95.83
3812;BME280;1921;49.368;11.068;2023-04-02T14:43:04;97852.50;;;5.32;96.00
3812;BME280;1921;49.368;11.068;2023-04-02T14:45:42;97903.94;;;5.35;95.94
3812;BME280;1921;49.368;11.068;2023-04-02T14:48:56;97907.59;;;5.33;94.55
3812;BME280;1921;49.368;11.068;2023-04-02T14:56:58;97871.13;;;4.78;93.30
3812;BME280;1921;49.368;11.068;2023-04-02T14:59:28;97870.19;;;4.79;93.50
3812;BME280;1921;49.368;11.068;2023-04-02T15:02:08;97900.00;;;5.12;91.84
3812;BME280;1921;49.368;11.068;2023-04-02T15:07:38;97880.25;;;5.01;92.33
3812;BME280;1921;49.368;11.068;2023-04-02T15:10:28;97924.47;;;5.27;90.81
3812;BME280;1921;49.368;11.068;2023-04-02T15:12:56;97868.50;;;4.58;93.58
3812;BME280;1921;49.368;11.068;2023-04-02T15:15:49;97930.00;;;4.84;95.44
3812;BME280;1921;49.368;11.068;2023-04-02T15:18:18;97849.97;;;4.34;93.63
3812;BME280;1921;49.368;11.068;2023-04-02T15:27:12;97947.47;;;5.01;92.83
3812;BME280;1921;49.368;11.068;2023-04-02T15:29:58;97921.34;;;4.95;93.31
3812;BME280;1921;49.368;11.068;2023-04-02T15:41:22;97968.69;;;5.14;89.36
3812;BME280;1921;49.368;11.068;2023-04-02T15:46:29;97970.47;;;5.14;87.61
3812;BME280;1921;49.368;11.068;2023-04-02T15:58:07;98002.88;;;4.78;89.09
3812;BME280;1921;49.368;11.068;2023-04-02T16:01:03;97995.66;;;4.72;88.86
3812;BME280;1921;49.368;11.068;2023-04-02T16:10:03;98007.28;;;4.87;85.37
3812;BME280;1921;49.368;11.068;2023-04-02T16:12:32;97957.94;;;4.50;83.41
3812;BME280;1921;49.368;11.068;2023-04-02T16:15:17;97961.59;;;4.47;83.87
3812;BME280;1921;49.368;11.068;2023-04-02T16:17:57;98009.97;;;4.76;82.45
3812;BME280;1921;49.368;11.068;2023-04-02T16:20:33;97982.00;;;4.50;82.04
3812;BME280;1921;49.368;11.068;2023-04-02T16:23:15;97991.88;;;4.45;83.68
3812;BME280;1921;49.368;11.068;2023-04-02T16:26:16;98025.72;;;4.73;83.03
3812;BME280;1921;49.368;11.068;2023-04-02T16:29:15;97996.00;;;4.27;82.50
3812;BME280;1921;49.368;11.068;2023-04-02T16:35:13;98039.53;;;4.62;83.00
3812;BME280;1921;49.368;11.068;2023-04-02T16:46:36;98066.97;;;4.53;83.53
3812;BME280;1921;49.368;11.068;2023-04-02T16:49:22;98053.94;;;4.65;82.28
3812;BME280;1921;49.368;11.068;2023-04-02T17:00:51;98012.13;;;4.19;82.51
3812;BME280;1921;49.368;11.068;2023-04-02T17:06:41;98081.69;;;4.63;80.22
3812;BME280;1921;49.368;11.068;2023-04-02T17:09:17;98088.81;;;4.49;82.03
3812;BME280;1921;49.368;11.068;2023-04-02T17:12:19;98091.94;;;4.53;80.38
3812;BME280;1921;49.368;11.068;2023-04-02T17:15:14;97988.22;;;3.75;81.70
3812;BME280;1921;49.368;11.068;2023-04-02T17:17:42;98042.91;;;4.32;81.40
3812;BME280;1921;49.368;11.068;2023-04-02T17:20:19;98029.75;;;4.14;80.12
3812;BME280;1921;49.368;11.068;2023-04-02T17:22:48;98050.63;;;4.22;81.81
3812;BME280;1921;49.368;11.068;2023-04-02T17:25:44;98086.09;;;4.51;80.92
3812;BME280;1921;49.368;11.068;2023-04-02T17:28:15;98076.44;;;4.22;79.99
3812;BME280;1921;49.368;11.068;2023-04-02T17:30:53;98120.50;;;4.51;80.35